createdAt,value
2022-09-26T00:01:27.774Z,99709.25
2022-09-26T00:03:58.329Z,99695.16
2022-09-26T00:06:27.534Z,99701.97
2022-09-26T00:08:55.820Z,99708.72
2022-09-26T00:11:26.306Z,99666.19
2022-09-26T00:13:55.418Z,99676.53
2022-09-26T00:16:25.224Z,99677.88
2022-09-26T00:18:54.917Z,99686.38
2022-09-26T00:21:23.867Z,99657.91
2022-09-26T00:23:52.456Z,99692.84
2022-09-26T00:26:21.857Z,99689.78
2022-09-26T00:28:49.773Z,99687.13
2022-09-26T00:31:20.591Z,99661.72
2022-09-26T00:33:50.013Z,99685.00
2022-09-26T00:36:18.231Z,99638.34
2022-09-26T00:38:46.307Z,99679.97
2022-09-26T00:41:14.812Z,99638.19
2022-09-26T00:43:44.888Z,99642.59
2022-09-26T00:46:24.451Z,99666.88
2022-09-26T00:48:58.929Z,99673.63
2022-09-26T00:51:26.977Z,99667.75
2022-09-26T00:53:55.922Z,99661.22
2022-09-26T00:56:27.614Z,99658.59
2022-09-26T00:59:13.763Z,99656.56
2022-09-26T01:01:43.125Z,99649.06
2022-09-26T01:04:14.107Z,99649.34
2022-09-26T01:06:42.684Z,99637.31
2022-09-26T01:09:12.507Z,99646.69
2022-09-26T01:11:42.655Z,99617.44
2022-09-26T01:14:12.976Z,99635.16
2022-09-26T01:16:41.866Z,99627.81
2022-09-26T01:19:20.398Z,99606.19
2022-09-26T01:22:26.942Z,99615.44
2022-09-26T01:25:11.287Z,99499.34
2022-09-26T01:27:58.675Z,99556.59
2022-09-26T01:30:34.582Z,99609.94
2022-09-26T01:33:27.976Z,99557.22
2022-09-26T01:36:19.457Z,99605.78
2022-09-26T01:39:02.078Z,99593.50
2022-09-26T01:41:44.045Z,99602.03
2022-09-26T01:44:26.366Z,99601.22
2022-09-26T01:47:01.011Z,99606.31
2022-09-26T01:49:34.096Z,99599.00
2022-09-26T01:52:06.872Z,99593.81
2022-09-26T01:54:41.035Z,99591.28
2022-09-26T01:57:15.346Z,99559.09
2022-09-26T01:59:49.312Z,99590.88
2022-09-26T02:02:25.695Z,99583.16
2022-09-26T02:04:58.022Z,99555.09
2022-09-26T02:07:32.838Z,99551.50
2022-09-26T02:10:06.804Z,99574.13
2022-09-26T02:12:38.169Z,99574.59
2022-09-26T02:15:11.683Z,99576.75
2022-09-26T02:17:43.688Z,99542.81
2022-09-26T02:20:16.555Z,99535.59
2022-09-26T02:22:46.274Z,99557.44
2022-09-26T02:25:16.592Z,99551.44
2022-09-26T02:27:44.524Z,99553.59
2022-09-26T02:30:13.347Z,99484.31
2022-09-26T02:32:42.625Z,99517.09
2022-09-26T02:35:30.347Z,99543.28
2022-09-26T02:37:59.397Z,99535.28
2022-09-26T02:40:36.711Z,99493.75
2022-09-26T02:43:18.598Z,99527.59
2022-09-26T02:45:55.744Z,99474.69
2022-09-26T02:48:39.584Z,99528.72
2022-09-26T02:51:21.344Z,99516.47
2022-09-26T02:54:08.460Z,99509.38
2022-09-26T02:57:01.427Z,99425.03
2022-09-26T02:59:37.274Z,99506.50
2022-09-26T03:02:15.759Z,99479.47
2022-09-26T03:04:53.174Z,99498.44
2022-09-26T03:07:26.380Z,99493.50
2022-09-26T03:09:56.193Z,99490.44
2022-09-26T03:12:27.611Z,99487.16
2022-09-26T03:14:58.855Z,99482.63
2022-09-26T03:17:28.170Z,99355.72
2022-09-26T03:20:03.935Z,99426.38
2022-09-26T03:22:33.500Z,99334.13
2022-09-26T03:25:02.087Z,99440.78
2022-09-26T03:27:33.295Z,99460.72
2022-09-26T03:30:01.301Z,99458.44
2022-09-26T03:32:29.615Z,99452.09
2022-09-26T03:34:58.924Z,99377.94
2022-09-26T03:37:26.872Z,99447.22
2022-09-26T03:39:55.729Z,99442.22
2022-09-26T03:42:33.965Z,99399.38
2022-09-26T03:45:02.699Z,99431.19
2022-09-26T03:47:32.256Z,99412.88
2022-09-26T03:50:01.919Z,99426.91
2022-09-26T03:52:30.004Z,99428.72
2022-09-26T03:54:57.967Z,99420.44
2022-09-26T03:57:26.308Z,99422.97
2022-09-26T04:00:01.172Z,99416.66
2022-09-26T04:02:44.082Z,99401.78
2022-09-26T04:05:25.771Z,99384.47
2022-09-26T04:07:54.203Z,99396.97
2022-09-26T04:10:22.657Z,99395.28
2022-09-26T04:12:50.527Z,99363.59
2022-09-26T04:15:18.889Z,99323.31
2022-09-26T04:17:47.151Z,99381.81
2022-09-26T04:20:15.253Z,99361.09
2022-09-26T04:22:46.390Z,99377.63
2022-09-26T04:25:14.358Z,99374.00
2022-09-26T04:27:42.545Z,99348.50
2022-09-26T04:30:12.231Z,99351.69
2022-09-26T04:32:48.836Z,99357.38
2022-09-26T04:35:16.795Z,99348.88
2022-09-26T04:37:46.192Z,99333.50
2022-09-26T04:40:15.058Z,99338.41
2022-09-26T04:42:58.139Z,99335.03
2022-09-26T04:45:26.806Z,99345.78
2022-09-26T04:47:54.762Z,99294.25
2022-09-26T04:50:42.525Z,99272.88
2022-09-26T04:53:13.630Z,99313.59
2022-09-26T04:55:55.511Z,99324.94
2022-09-26T04:58:23.577Z,99318.03
2022-09-26T05:00:52.443Z,99315.16
2022-09-26T05:03:31.868Z,99317.97
2022-09-26T05:06:01.086Z,99314.78
2022-09-26T05:08:30.274Z,99308.53
2022-09-26T05:10:58.970Z,99280.09
2022-09-26T05:13:28.089Z,99305.75
2022-09-26T05:15:56.615Z,99297.41
2022-09-26T05:18:28.099Z,99297.47
2022-09-26T05:20:58.145Z,99291.97
2022-09-26T05:23:45.632Z,99293.19
2022-09-26T05:26:23.657Z,99288.97
2022-09-26T05:28:54.387Z,99289.59
2022-09-26T05:31:29.071Z,99265.13
2022-09-26T05:33:57.531Z,99283.19
2022-09-26T05:36:26.327Z,99268.97
2022-09-26T05:38:54.692Z,99230.47
2022-09-26T05:41:23.258Z,99272.03
2022-09-26T05:43:51.512Z,99230.31
2022-09-26T05:46:19.559Z,99192.28
2022-09-26T05:48:51.510Z,99212.25
2022-09-26T05:51:23.517Z,99269.47
2022-09-26T05:53:51.642Z,99269.38
2022-09-26T05:56:24.622Z,99226.38
2022-09-26T05:59:20.625Z,99267.03
2022-09-26T06:02:11.380Z,99264.59
2022-09-26T06:05:02.690Z,99256.13
2022-09-26T06:07:45.798Z,99238.09
2022-09-26T06:10:32.241Z,99252.09
2022-09-26T06:13:03.869Z,99265.53
2022-09-26T06:15:35.191Z,99248.47
2022-09-26T06:18:05.431Z,99225.47
2022-09-26T06:20:33.367Z,99241.66
2022-09-26T06:23:01.807Z,99245.13
2022-09-26T06:25:30.123Z,99244.34
2022-09-26T06:28:02.962Z,99241.56
2022-09-26T06:30:31.848Z,99213.56
2022-09-26T06:33:11.202Z,99235.34
2022-09-26T06:36:00.815Z,99237.19
2022-09-26T06:38:34.061Z,99227.06
2022-09-26T06:41:03.282Z,99193.16
2022-09-26T06:43:33.012Z,99207.19
2022-09-26T06:46:24.077Z,99221.31
2022-09-26T06:48:58.419Z,99228.41
2022-09-26T06:51:48.935Z,99187.19
2022-09-26T06:54:18.352Z,99223.63
2022-09-26T06:56:46.300Z,99224.25
2022-09-26T06:59:16.850Z,99225.47
2022-09-26T07:01:53.400Z,99214.41
2022-09-26T07:04:54.525Z,99211.44
2022-09-26T07:07:32.612Z,99212.91
2022-09-26T07:10:00.608Z,99203.50
2022-09-26T07:12:53.639Z,99194.28
2022-09-26T07:15:24.694Z,99202.13
2022-09-26T07:17:52.748Z,99204.50
2022-09-26T07:20:47.091Z,99195.47
2022-09-26T07:23:33.780Z,99194.66
2022-09-26T07:26:02.468Z,99176.69
2022-09-26T07:28:36.809Z,99181.38
2022-09-26T07:31:07.529Z,99185.00
2022-09-26T07:33:44.375Z,99156.16
2022-09-26T07:36:13.181Z,99162.63
2022-09-26T07:38:43.797Z,99175.50
2022-09-26T07:41:12.254Z,99078.81
2022-09-26T07:44:21.717Z,99165.34
2022-09-26T07:46:49.554Z,99124.13
2022-09-26T07:49:35.370Z,99148.72
2022-09-26T07:52:17.553Z,99056.28
2022-09-26T07:54:57.053Z,99149.31
2022-09-26T07:58:00.446Z,99151.44
2022-09-26T08:00:38.116Z,99155.75
2022-09-26T08:03:20.667Z,99142.00
2022-09-26T08:05:49.467Z,99147.00
2022-09-26T08:08:17.398Z,99138.56
2022-09-26T08:11:04.051Z,99140.88
2022-09-26T08:14:06.725Z,99145.50
2022-09-26T08:16:45.502Z,99135.06
2022-09-26T08:19:17.396Z,99145.31
2022-09-26T08:21:46.046Z,99138.09
2022-09-26T08:24:14.445Z,99054.94
2022-09-26T08:26:45.179Z,99135.50
2022-09-26T08:29:18.717Z,99130.47
2022-09-26T08:31:50.186Z,99137.97
2022-09-26T08:34:25.366Z,99129.38
2022-09-26T08:37:17.087Z,99126.03
2022-09-26T08:40:03.513Z,99129.25
2022-09-26T08:42:59.285Z,99121.16
2022-09-26T08:46:07.220Z,99016.69
2022-09-26T08:49:00.904Z,99109.28
2022-09-26T08:51:34.901Z,99112.81
2022-09-26T08:54:11.204Z,99091.38
2022-09-26T08:56:43.250Z,99107.94
2022-09-26T08:59:26.728Z,99088.19
2022-09-26T09:01:57.708Z,99088.81
2022-09-26T09:04:42.064Z,99090.72
2022-09-26T09:07:22.332Z,99084.72
2022-09-26T09:09:52.327Z,99077.22
2022-09-26T09:12:52.261Z,99069.69
2022-09-26T09:15:57.642Z,99085.41
2022-09-26T09:18:41.961Z,99083.38
2022-09-26T09:21:41.972Z,99074.78
2022-09-26T09:24:47.894Z,99075.13
2022-09-26T09:30:20.859Z,99041.97
2022-09-26T09:32:57.379Z,99080.06
2022-09-26T09:35:40.009Z,99066.78
2022-09-26T09:38:33.159Z,99058.66
2022-09-26T09:41:25.215Z,99071.44
2022-09-26T09:43:56.454Z,99063.72
2022-09-26T09:46:29.039Z,99057.25
2022-09-26T09:49:01.268Z,99012.59
2022-09-26T09:51:39.761Z,99051.00
2022-09-26T09:54:25.077Z,99054.88
2022-09-26T09:57:15.422Z,99042.59
2022-09-26T09:59:50.774Z,99058.63
2022-09-26T10:02:29.758Z,99052.72
2022-09-26T10:05:17.145Z,99041.72
2022-09-26T10:07:47.616Z,99052.06
2022-09-26T10:10:50.725Z,99056.84
2022-09-26T10:13:42.191Z,99052.25
2022-09-26T10:16:27.316Z,99045.75
2022-09-26T10:19:04.588Z,99045.63
2022-09-26T10:21:39.324Z,99048.47
2022-09-26T10:24:09.583Z,98906.75
2022-09-26T10:26:49.553Z,99040.88
2022-09-26T10:29:35.173Z,99027.34
2022-09-26T10:32:05.296Z,99029.47
2022-09-26T10:34:35.662Z,99029.03
2022-09-26T10:37:22.665Z,99025.16
2022-09-26T10:40:13.397Z,99018.91
2022-09-26T10:42:43.103Z,99018.59
2022-09-26T10:45:17.614Z,99024.22
2022-09-26T10:48:07.168Z,99024.56
2022-09-26T10:51:00.531Z,98993.66
2022-09-26T10:53:46.292Z,99013.81
2022-09-26T10:56:23.530Z,99011.06
2022-09-26T10:58:54.334Z,99009.78
2022-09-26T11:01:26.827Z,98965.47
2022-09-26T11:03:57.329Z,99010.84
2022-09-26T11:06:28.767Z,99009.44
2022-09-26T11:09:06.014Z,99005.44
2022-09-26T11:11:40.237Z,98941.09
2022-09-26T11:14:10.239Z,98991.66
2022-09-26T11:16:53.910Z,98973.22
2022-09-26T11:19:32.998Z,98998.56
2022-09-26T11:22:11.144Z,98973.75
2022-09-26T11:30:53.185Z,98962.69
2022-09-26T11:36:51.892Z,98977.03
2022-09-26T11:39:38.777Z,98942.63
2022-09-26T11:42:24.963Z,98953.91
2022-09-26T11:44:58.606Z,98968.22
2022-09-26T11:48:23.011Z,98961.41
2022-09-26T11:51:26.943Z,98956.97
2022-09-26T11:54:32.444Z,98964.53
2022-09-26T11:57:14.656Z,98952.06
2022-09-26T11:59:58.019Z,98927.81
2022-09-26T12:02:47.405Z,98951.31
2022-09-26T12:05:30.301Z,98938.63
2022-09-26T12:08:14.699Z,98937.94
2022-09-26T12:10:49.322Z,98930.69
2022-09-26T12:13:29.754Z,98926.03
2022-09-26T12:16:01.693Z,98918.00
2022-09-26T12:18:36.859Z,98911.31
2022-09-26T12:21:21.395Z,98913.19
2022-09-26T12:23:54.582Z,98894.81
2022-09-26T12:26:35.092Z,98882.31
2022-09-26T12:29:25.712Z,98894.66
2022-09-26T12:32:16.057Z,98779.25
2022-09-26T12:35:01.634Z,98876.81
2022-09-26T12:37:58.815Z,98881.91
2022-09-26T12:40:46.042Z,98873.63
2022-09-26T12:43:44.827Z,98864.44
2022-09-26T12:46:59.189Z,98844.19
2022-09-26T12:49:46.068Z,98870.09
2022-09-26T12:52:27.395Z,98840.56
2022-09-26T12:55:09.618Z,98859.56
2022-09-26T12:57:54.464Z,98815.66
2022-09-26T13:00:23.247Z,98849.28
2022-09-26T13:03:18.892Z,98847.16
2022-09-26T13:06:08.874Z,98830.44
2022-09-26T13:08:48.499Z,98845.88
2022-09-26T13:11:29.235Z,98808.06
2022-09-26T13:14:29.728Z,98757.53
2022-09-26T13:17:10.150Z,98806.91
2022-09-26T13:19:42.164Z,98825.84
2022-09-26T13:22:25.915Z,98805.13
2022-09-26T13:25:00.619Z,98801.97
2022-09-26T13:27:38.309Z,98796.88
2022-09-26T13:30:16.960Z,98763.69
2022-09-26T13:32:54.980Z,98805.50
2022-09-26T13:35:25.574Z,98794.81
2022-09-26T13:38:14.234Z,98776.50
2022-09-26T13:40:51.459Z,98728.44
2022-09-26T13:43:34.174Z,98800.84
2022-09-26T13:46:15.746Z,98800.03
2022-09-26T13:48:51.793Z,98791.28
2022-09-26T13:51:26.197Z,98796.44
2022-09-26T13:54:03.886Z,98782.25
2022-09-26T13:56:49.599Z,98792.47
2022-09-26T13:59:34.328Z,98766.56
2022-09-26T14:02:26.463Z,98774.47
2022-09-26T14:05:14.863Z,98743.34
2022-09-26T14:08:10.973Z,98782.94
2022-09-26T14:10:40.640Z,98769.53
2022-09-26T14:13:22.092Z,98778.00
2022-09-26T14:16:05.244Z,98754.72
2022-09-26T14:18:55.839Z,98754.13
2022-09-26T14:21:38.352Z,98738.84
2022-09-26T14:24:33.574Z,98740.19
2022-09-26T14:27:30.861Z,98729.72
2022-09-26T14:30:08.013Z,98720.69
2022-09-26T14:32:38.690Z,98717.88
2022-09-26T14:35:19.822Z,98720.69
2022-09-26T14:37:50.045Z,98722.13
2022-09-26T14:40:23.624Z,98714.81
2022-09-26T14:43:04.789Z,98642.50
2022-09-26T14:45:47.570Z,98703.75
2022-09-26T14:48:37.894Z,98708.91
2022-09-26T14:51:08.312Z,98691.53
2022-09-26T14:53:41.102Z,98698.38
2022-09-26T14:56:12.644Z,98700.78
2022-09-26T14:58:50.699Z,98688.25
2022-09-26T15:01:25.885Z,98667.94
2022-09-26T15:03:58.239Z,98688.28
2022-09-26T15:06:29.851Z,98655.09
2022-09-26T15:09:00.254Z,98675.38
2022-09-26T15:11:38.927Z,98680.94
2022-09-26T15:14:22.511Z,98663.56
2022-09-26T15:16:54.589Z,98682.41
2022-09-26T15:19:26.139Z,98667.00
2022-09-26T15:22:01.193Z,98661.78
2022-09-26T15:24:32.448Z,98632.47
2022-09-26T15:27:08.111Z,98651.00
2022-09-26T15:29:37.050Z,98611.59
2022-09-26T15:32:06.908Z,98656.00
2022-09-26T15:34:37.265Z,98580.78
2022-09-26T15:37:15.881Z,98645.81
2022-09-26T15:39:44.284Z,98640.06
2022-09-26T15:42:42.282Z,98631.72
2022-09-26T15:45:30.524Z,98643.47
2022-09-26T15:48:00.346Z,98637.25
2022-09-26T15:50:32.817Z,98611.09
2022-09-26T15:53:08.407Z,98633.63
2022-09-26T15:55:43.375Z,98628.69
2022-09-26T15:58:16.839Z,98580.81
2022-09-26T16:00:49.571Z,98624.56
2022-09-26T16:03:39.250Z,98633.03
2022-09-26T16:06:15.229Z,98632.63
2022-09-26T16:08:44.748Z,98616.69
2022-09-26T16:11:12.736Z,98627.22
2022-09-26T16:13:46.433Z,98617.16
2022-09-26T16:16:18.665Z,98613.50
2022-09-26T16:18:53.336Z,98608.78
2022-09-26T16:21:22.817Z,98585.38
2022-09-26T16:23:54.380Z,98612.97
2022-09-26T16:26:28.565Z,98605.91
2022-09-26T16:28:57.887Z,98600.44
2022-09-26T16:31:36.415Z,98606.00
2022-09-26T16:34:07.059Z,98578.34
2022-09-26T16:36:35.701Z,98603.31
2022-09-26T16:39:08.860Z,98598.75
2022-09-26T16:44:34.502Z,98586.19
2022-09-26T16:47:05.897Z,98591.97
2022-09-26T16:49:46.148Z,98585.38
2022-09-26T16:52:25.165Z,98468.44
2022-09-26T16:54:55.152Z,98572.63
2022-09-26T16:57:25.652Z,98590.34
2022-09-26T17:00:14.715Z,98586.47
2022-09-26T17:02:42.502Z,98570.84
2022-09-26T17:05:18.618Z,98574.97
2022-09-26T17:07:47.636Z,98544.59
2022-09-26T17:10:19.063Z,98570.16
2022-09-26T17:12:50.430Z,98584.78
2022-09-26T17:15:20.818Z,98564.19
2022-09-26T17:17:48.922Z,98570.50
2022-09-26T17:20:17.001Z,98553.56
2022-09-26T17:22:45.065Z,98552.59
2022-09-26T17:25:13.767Z,98575.22
2022-09-26T17:27:44.501Z,98540.69
2022-09-26T17:30:17.863Z,98503.44
2022-09-26T17:32:49.900Z,98575.97
2022-09-26T17:35:24.026Z,98561.59
2022-09-26T17:37:52.508Z,98532.03
2022-09-26T17:40:22.706Z,98563.56
2022-09-26T17:42:52.502Z,98556.47
2022-09-26T17:45:20.603Z,98559.28
2022-09-26T17:47:49.108Z,98558.63
2022-09-26T17:50:22.388Z,98551.09
2022-09-26T17:52:50.896Z,98441.47
2022-09-26T17:55:20.336Z,98546.41
2022-09-26T17:57:48.447Z,98530.56
2022-09-26T18:00:19.368Z,98541.88
2022-09-26T18:02:50.315Z,98542.44
2022-09-26T18:05:21.675Z,98518.56
2022-09-26T18:07:52.875Z,98534.72
2022-09-26T18:10:30.453Z,98539.47
2022-09-26T18:13:00.705Z,98534.88
2022-09-26T18:15:31.090Z,98525.88
2022-09-26T18:18:00.344Z,98527.56
2022-09-26T18:20:37.038Z,98513.84
2022-09-26T18:23:07.493Z,98525.44
2022-09-26T18:25:37.492Z,98524.78
2022-09-26T18:28:08.360Z,98522.63
2022-09-26T18:30:38.783Z,98518.25
2022-09-26T18:33:07.136Z,98511.94
2022-09-26T18:35:35.083Z,98522.88
2022-09-26T18:38:03.463Z,98510.22
2022-09-26T18:40:31.680Z,98512.16
2022-09-26T18:42:59.897Z,98504.00
2022-09-26T18:45:32.752Z,98505.50
2022-09-26T18:48:05.067Z,98504.09
2022-09-26T18:50:36.572Z,98509.91
2022-09-26T18:53:04.961Z,98503.34
2022-09-26T18:55:50.618Z,98496.19
2022-09-26T18:58:26.672Z,98498.66
2022-09-26T19:00:57.800Z,98450.72
2022-09-26T19:03:29.739Z,98475.25
2022-09-26T19:06:03.255Z,98491.69
2022-09-26T19:08:36.826Z,98438.38
2022-09-26T19:11:13.187Z,98483.41
2022-09-26T19:13:41.269Z,98455.13
2022-09-26T19:16:10.308Z,98401.09
2022-09-26T19:18:40.707Z,98443.22
2022-09-26T19:21:14.002Z,98469.28
2022-09-26T19:23:42.275Z,98458.22
2022-09-26T19:26:17.148Z,98353.75
2022-09-26T19:28:45.192Z,98395.00
2022-09-26T19:31:13.436Z,98440.75
2022-09-26T19:33:46.188Z,98416.41
2022-09-26T19:36:17.143Z,98389.84
2022-09-26T19:38:45.283Z,98440.88
2022-09-26T19:41:13.895Z,98439.25
2022-09-26T19:43:42.248Z,98436.78
2022-09-26T19:46:18.421Z,98435.19
2022-09-26T19:48:47.853Z,98433.44
2022-09-26T19:51:18.632Z,98404.31
2022-09-26T19:53:46.774Z,98423.19
2022-09-26T19:56:15.015Z,98425.94
2022-09-26T19:58:46.419Z,98351.84
2022-09-26T20:01:19.002Z,98425.31
2022-09-26T20:03:48.868Z,98419.75
2022-09-26T20:06:21.110Z,98418.34
2022-09-26T20:08:49.678Z,98393.91
2022-09-26T20:11:17.685Z,98182.84
2022-09-26T20:14:04.164Z,98408.28
2022-09-26T20:16:35.194Z,98402.59
2022-09-26T20:19:09.824Z,98398.75
2022-09-26T20:21:37.995Z,98395.94
2022-09-26T20:24:11.124Z,98399.41
2022-09-26T20:26:40.450Z,98394.56
2022-09-26T20:29:13.884Z,98390.72
2022-09-26T20:31:43.703Z,98378.72
2022-09-26T20:34:13.123Z,98383.09
2022-09-26T20:36:46.264Z,98362.22
2022-09-26T20:39:17.514Z,98363.81
2022-09-26T20:41:45.915Z,98135.13
2022-09-26T20:44:19.963Z,98364.44
2022-09-26T20:46:50.714Z,98360.47
2022-09-26T20:49:24.712Z,98343.88
2022-09-26T20:51:53.549Z,98339.06
2022-09-26T20:54:26.883Z,98352.13
2022-09-26T20:56:55.741Z,98342.38
2022-09-26T20:59:24.221Z,98342.59
2022-09-26T21:01:54.354Z,98322.44
2022-09-26T21:04:29.987Z,98337.66
2022-09-26T21:06:58.048Z,98326.31
2022-09-26T21:09:26.077Z,98270.84
2022-09-26T21:11:54.133Z,98321.59
2022-09-26T21:14:22.033Z,98322.16
2022-09-26T21:16:53.586Z,98317.25
2022-09-26T21:19:25.175Z,98310.25
2022-09-26T21:22:05.327Z,98318.63
2022-09-26T21:24:49.130Z,98306.50
2022-09-26T21:27:17.500Z,98284.16
2022-09-26T21:29:45.504Z,98287.25
2022-09-26T21:32:17.865Z,98305.56
2022-09-26T21:34:57.247Z,98281.16
2022-09-26T21:37:25.342Z,98302.56
2022-09-26T21:39:53.281Z,98302.97
2022-09-26T21:42:21.644Z,98267.22
2022-09-26T21:44:55.092Z,98294.53
2022-09-26T21:47:24.595Z,98286.28
2022-09-26T21:49:54.481Z,98267.94
2022-09-26T21:52:26.190Z,98284.56
2022-09-26T21:54:54.506Z,98284.91
2022-09-26T21:57:27.674Z,98284.97
2022-09-26T21:59:58.341Z,98168.53
2022-09-26T22:02:27.072Z,98278.25
2022-09-26T22:04:56.457Z,98274.81
2022-09-26T22:07:24.355Z,98266.47
2022-09-26T22:09:52.619Z,98013.47
2022-09-26T22:12:20.681Z,98255.44
2022-09-26T22:14:48.836Z,98250.63
2022-09-26T22:17:16.833Z,98246.53
2022-09-26T22:19:44.828Z,98219.47
2022-09-26T22:22:14.174Z,98236.78
2022-09-26T22:24:42.068Z,98236.38
2022-09-26T22:27:10.094Z,98210.47
2022-09-26T22:29:38.001Z,98225.88
2022-09-26T22:32:06.254Z,98229.06
2022-09-26T22:34:34.145Z,98143.13
2022-09-26T22:37:02.062Z,98216.53
2022-09-26T22:39:31.341Z,98124.94
2022-09-26T22:41:59.288Z,98215.81
2022-09-26T22:44:27.284Z,98210.13
2022-09-26T22:46:55.327Z,98204.44
2022-09-26T22:49:23.323Z,98144.53
2022-09-26T22:51:51.346Z,98196.09
2022-09-26T22:54:19.559Z,98207.22
2022-09-26T22:56:48.997Z,98193.84
2022-09-26T22:59:17.187Z,98182.66
2022-09-26T23:01:45.402Z,98194.78
2022-09-26T23:04:13.382Z,98192.97
2022-09-26T23:06:41.344Z,98189.97
2022-09-26T23:09:09.384Z,98185.69
2022-09-26T23:11:37.607Z,98182.84
2022-09-26T23:14:07.107Z,98177.47
2022-09-26T23:16:35.076Z,98161.22
2022-09-26T23:19:03.068Z,98066.78
2022-09-26T23:21:31.095Z,98167.16
2022-09-26T23:24:00.599Z,98163.91
2022-09-26T23:26:31.840Z,98166.59
2022-09-26T23:29:00.269Z,98127.81
2022-09-26T23:31:30.236Z,98158.78
2022-09-26T23:33:58.583Z,98124.34
2022-09-26T23:36:26.797Z,98143.94
2022-09-26T23:38:55.241Z,98159.25
2022-09-26T23:41:23.208Z,98159.44
2022-09-26T23:43:51.574Z,98148.31
2022-09-26T23:46:19.524Z,98146.16
2022-09-26T23:48:48.929Z,98139.72
2022-09-26T23:51:16.900Z,98121.63
2022-09-26T23:53:45.002Z,98130.75
2022-09-26T23:56:14.652Z,98132.69
2022-09-26T23:58:43.068Z,98016.91
